createdAt,value
2023-01-21T00:01:06.530Z,17.20
2023-01-21T00:03:33.715Z,17.90
2023-01-21T00:06:00.603Z,17.10
2023-01-21T00:08:27.841Z,17.30
2023-01-21T00:10:54.741Z,16.83
2023-01-21T00:13:21.542Z,16.47
2023-01-21T00:15:48.477Z,21.10
2023-01-21T00:18:15.436Z,16.90
2023-01-21T00:20:42.185Z,18.23
2023-01-21T00:23:10.893Z,16.97
2023-01-21T00:25:37.775Z,16.83
2023-01-21T00:28:04.633Z,16.30
2023-01-21T00:30:31.530Z,17.00
2023-01-21T00:32:58.378Z,16.50
2023-01-21T00:35:25.111Z,17.00
2023-01-21T00:37:52.512Z,16.77
2023-01-21T00:40:19.436Z,17.37
2023-01-21T00:42:46.280Z,17.50
2023-01-21T00:45:13.214Z,16.33
2023-01-21T00:47:40.339Z,16.47
2023-01-21T00:50:08.858Z,16.87
2023-01-21T00:52:35.790Z,17.40
2023-01-21T00:55:02.542Z,17.00
2023-01-21T00:57:29.259Z,17.30
2023-01-21T00:59:56.437Z,16.17
2023-01-21T01:02:23.144Z,16.73
2023-01-21T01:04:49.872Z,16.90
2023-01-21T01:07:16.749Z,16.90
2023-01-21T01:09:43.549Z,16.20
2023-01-21T01:12:10.327Z,15.57
2023-01-21T01:14:37.265Z,15.57
2023-01-21T01:17:04.825Z,15.93
2023-01-21T01:19:31.595Z,16.77
2023-01-21T01:21:58.437Z,16.73
2023-01-21T01:24:25.282Z,16.20
2023-01-21T01:26:52.045Z,16.10
2023-01-21T01:29:18.854Z,17.40
2023-01-21T01:31:45.674Z,17.83
2023-01-21T01:34:12.532Z,16.33
2023-01-21T01:36:39.305Z,17.67
2023-01-21T01:39:06.024Z,18.30
2023-01-21T01:41:35.085Z,16.77
2023-01-21T01:44:03.495Z,16.23
2023-01-21T01:46:33.011Z,16.07
2023-01-21T01:49:21.499Z,17.07
2023-01-21T01:51:50.784Z,18.50
2023-01-21T01:54:24.502Z,16.37
2023-01-21T01:56:56.365Z,17.37
2023-01-21T01:59:23.447Z,16.60
2023-01-21T02:01:50.324Z,17.73
2023-01-21T02:04:29.585Z,17.50
2023-01-21T02:06:57.947Z,17.07
2023-01-21T02:09:29.939Z,18.07
2023-01-21T02:12:02.118Z,16.37
2023-01-21T02:14:30.576Z,17.07
2023-01-21T02:17:18.803Z,16.90
2023-01-21T02:20:04.360Z,15.00
2023-01-21T02:22:39.954Z,16.07
2023-01-21T02:25:40.711Z,16.10
2023-01-21T02:28:46.579Z,17.20
2023-01-21T02:31:44.233Z,16.60
2023-01-21T02:35:08.221Z,16.00
2023-01-21T02:37:40.587Z,17.00
2023-01-21T02:40:29.010Z,16.30
2023-01-21T02:43:07.613Z,16.80
2023-01-21T02:45:41.810Z,16.60
2023-01-21T02:48:17.001Z,16.03
2023-01-21T02:50:52.548Z,15.03
2023-01-21T02:53:28.347Z,17.23
2023-01-21T02:55:59.148Z,16.53
2023-01-21T02:58:31.628Z,16.80
2023-01-21T03:01:13.616Z,17.07
2023-01-21T03:03:57.603Z,16.50
2023-01-21T03:06:41.178Z,17.20
2023-01-21T03:09:18.378Z,16.63
2023-01-21T03:12:01.993Z,15.93
2023-01-21T03:14:55.367Z,17.20
2023-01-21T03:17:35.738Z,16.50
2023-01-21T03:20:07.804Z,16.43
2023-01-21T03:22:36.146Z,17.17
2023-01-21T03:25:04.294Z,16.33
2023-01-21T03:27:32.952Z,16.20
2023-01-21T03:30:10.320Z,16.73
2023-01-21T03:32:38.346Z,16.30
2023-01-21T03:35:07.479Z,14.97
2023-01-21T03:37:42.200Z,15.23
2023-01-21T03:40:20.659Z,17.07
2023-01-21T03:42:51.160Z,15.33
2023-01-21T03:45:42.832Z,15.60
2023-01-21T03:48:18.604Z,15.50
2023-01-21T03:50:53.294Z,14.80
2023-01-21T03:53:20.145Z,14.00
2023-01-21T03:55:49.591Z,15.40
2023-01-21T03:58:16.352Z,14.00
2023-01-21T04:00:43.186Z,14.67
2023-01-21T04:03:09.925Z,15.17
2023-01-21T04:05:36.762Z,14.90
2023-01-21T04:08:03.649Z,14.10
2023-01-21T04:10:30.432Z,15.70
2023-01-21T04:12:57.184Z,13.83
2023-01-21T04:15:23.918Z,13.80
2023-01-21T04:17:50.657Z,14.70
2023-01-21T04:20:18.809Z,14.10
2023-01-21T04:22:45.694Z,14.33
2023-01-21T04:25:12.637Z,15.13
2023-01-21T04:27:39.372Z,14.50
2023-01-21T04:30:06.929Z,14.63
2023-01-21T04:32:33.803Z,13.00
2023-01-21T04:35:00.539Z,14.67
2023-01-21T04:37:27.356Z,14.27
2023-01-21T04:39:54.111Z,14.30
2023-01-21T04:42:20.838Z,13.37
2023-01-21T04:44:47.655Z,15.33
2023-01-21T04:47:14.430Z,14.97
2023-01-21T04:49:41.169Z,13.67
2023-01-21T04:52:07.992Z,14.50
2023-01-21T04:54:34.782Z,13.40
2023-01-21T04:57:01.607Z,14.07
2023-01-21T04:59:28.327Z,13.73
2023-01-21T05:01:55.112Z,15.63
2023-01-21T05:04:21.884Z,15.03
2023-01-21T05:06:48.745Z,14.57
2023-01-21T05:09:15.662Z,15.13
2023-01-21T05:11:42.437Z,14.60
2023-01-21T05:14:09.514Z,14.60
2023-01-21T05:16:36.411Z,14.67
2023-01-21T05:19:14.562Z,14.50
2023-01-21T05:21:41.338Z,13.73
2023-01-21T05:24:08.132Z,16.20
2023-01-21T05:26:35.553Z,15.50
2023-01-21T05:29:02.366Z,14.80
2023-01-21T05:31:29.199Z,14.43
2023-01-21T05:33:57.041Z,14.10
2023-01-21T05:36:23.956Z,14.07
2023-01-21T05:38:50.761Z,14.83
2023-01-21T05:41:17.892Z,14.43
2023-01-21T05:43:44.730Z,15.50
2023-01-21T05:46:11.624Z,14.37
2023-01-21T05:48:38.446Z,14.33
2023-01-21T05:51:05.445Z,13.83
2023-01-21T05:53:32.255Z,15.23
2023-01-21T05:55:59.056Z,14.87
2023-01-21T05:58:26.538Z,14.27
2023-01-21T06:00:53.692Z,14.70
2023-01-21T06:03:20.734Z,14.93
2023-01-21T06:05:49.892Z,14.00
2023-01-21T06:08:17.167Z,14.27
2023-01-21T06:10:44.454Z,15.50
2023-01-21T06:13:13.093Z,14.60
2023-01-21T06:15:40.052Z,14.73
2023-01-21T06:18:07.606Z,16.87
2023-01-21T06:20:34.616Z,15.53
2023-01-21T06:23:02.452Z,16.13
2023-01-21T06:25:29.839Z,14.77
2023-01-21T06:27:57.819Z,16.17
2023-01-21T06:30:26.002Z,16.00
2023-01-21T06:32:53.037Z,17.17
2023-01-21T06:35:20.173Z,17.97
2023-01-21T06:37:47.212Z,16.30
2023-01-21T06:40:15.003Z,16.77
2023-01-21T06:42:45.070Z,17.17
2023-01-21T06:45:11.832Z,19.20
2023-01-21T06:47:42.047Z,17.50
2023-01-21T06:50:11.107Z,17.53
2023-01-21T06:52:37.911Z,17.80
2023-01-21T06:55:05.335Z,18.23
2023-01-21T06:57:32.065Z,16.90
2023-01-21T06:59:58.799Z,16.80
2023-01-21T07:02:25.617Z,18.10
2023-01-21T07:04:52.503Z,19.03
2023-01-21T07:07:19.302Z,21.13
2023-01-21T07:09:46.092Z,20.23
2023-01-21T07:12:13.367Z,21.30
2023-01-21T07:14:40.177Z,18.77
2023-01-21T07:17:06.897Z,20.97
2023-01-21T07:19:33.646Z,23.40
2023-01-21T07:22:00.617Z,17.33
2023-01-21T07:24:27.398Z,21.53
2023-01-21T07:26:54.285Z,22.20
2023-01-21T07:29:23.173Z,20.63
2023-01-21T07:31:50.106Z,21.23
2023-01-21T07:34:16.920Z,21.10
2023-01-21T07:36:43.645Z,24.03
2023-01-21T07:39:10.424Z,21.00
2023-01-21T07:41:37.288Z,22.67
2023-01-21T07:44:04.016Z,22.17
2023-01-21T07:46:33.257Z,22.33
2023-01-21T07:49:00.029Z,22.43
2023-01-21T07:51:26.775Z,22.27
2023-01-21T07:53:56.712Z,22.23
2023-01-21T07:56:25.155Z,24.47
2023-01-21T07:58:52.266Z,24.30
2023-01-21T08:01:19.117Z,22.03
2023-01-21T08:03:45.879Z,24.87
2023-01-21T08:06:12.687Z,25.00
2023-01-21T08:08:39.467Z,25.07
2023-01-21T08:11:06.442Z,26.23
2023-01-21T08:13:33.219Z,25.23
2023-01-21T08:16:00.042Z,26.13
2023-01-21T08:18:26.823Z,27.03
2023-01-21T08:20:58.199Z,25.57
2023-01-21T08:23:26.367Z,26.13
2023-01-21T08:25:53.588Z,24.97
2023-01-21T08:28:20.645Z,27.10
2023-01-21T08:30:47.432Z,24.30
2023-01-21T08:33:14.476Z,25.50
2023-01-21T08:35:41.318Z,25.53
2023-01-21T08:38:08.085Z,25.40
2023-01-21T08:40:34.841Z,24.50
2023-01-21T08:43:03.407Z,25.93
2023-01-21T08:45:30.392Z,24.30
2023-01-21T08:47:57.165Z,25.80
2023-01-21T08:50:24.233Z,24.67
2023-01-21T08:52:55.395Z,23.20
2023-01-21T08:55:25.223Z,27.00
2023-01-21T08:57:53.493Z,24.10
2023-01-21T09:00:21.419Z,23.03
2023-01-21T09:02:50.064Z,24.23
2023-01-21T09:05:18.552Z,23.33
2023-01-21T09:07:45.877Z,23.30
2023-01-21T09:10:13.104Z,24.90
2023-01-21T09:12:42.629Z,24.67
2023-01-21T09:15:09.531Z,22.93
2023-01-21T09:17:36.696Z,22.77
2023-01-21T09:20:03.779Z,23.13
2023-01-21T09:22:30.548Z,25.10
2023-01-21T09:24:57.322Z,22.70
2023-01-21T09:27:32.293Z,23.53
2023-01-21T09:29:59.067Z,22.80
2023-01-21T09:32:26.054Z,21.77
2023-01-21T09:34:52.862Z,22.77
2023-01-21T09:37:19.643Z,23.10
2023-01-21T09:39:47.812Z,22.03
2023-01-21T09:42:25.372Z,22.70
2023-01-21T09:44:54.127Z,23.47
2023-01-21T09:47:33.549Z,19.77
2023-01-21T09:50:16.732Z,22.40
2023-01-21T09:52:45.054Z,21.50
2023-01-21T09:55:20.762Z,23.00
2023-01-21T09:58:08.383Z,22.90
2023-01-21T10:00:41.636Z,22.23
2023-01-21T10:03:35.962Z,22.47
2023-01-21T10:06:38.395Z,24.73
2023-01-21T10:09:23.400Z,23.37
2023-01-21T10:12:25.813Z,23.50
2023-01-21T10:15:12.841Z,22.97
2023-01-21T10:17:51.826Z,20.80
2023-01-21T10:20:53.849Z,22.57
2023-01-21T10:23:43.755Z,21.40
2023-01-21T10:26:13.869Z,22.83
2023-01-21T10:28:44.292Z,20.77
2023-01-21T10:31:24.779Z,21.37
2023-01-21T10:33:52.116Z,19.93
2023-01-21T10:36:42.280Z,20.00
2023-01-21T10:39:27.159Z,22.00
2023-01-21T10:42:29.914Z,20.97
2023-01-21T10:45:19.551Z,21.83
2023-01-21T10:48:12.412Z,19.67
2023-01-21T10:50:57.463Z,19.50
2023-01-21T10:53:56.696Z,21.73
2023-01-21T10:56:29.722Z,21.33
2023-01-21T10:59:06.781Z,20.27
2023-01-21T11:01:40.767Z,19.90
2023-01-21T11:04:15.243Z,20.60
2023-01-21T11:06:44.099Z,20.30
2023-01-21T11:09:14.349Z,17.53
2023-01-21T11:11:42.863Z,23.70
2023-01-21T11:14:10.545Z,25.63
2023-01-21T11:16:43.502Z,23.60
2023-01-21T11:19:17.811Z,22.67
2023-01-21T11:22:22.004Z,20.10
2023-01-21T11:24:51.449Z,19.83
2023-01-21T11:27:27.906Z,19.53
2023-01-21T11:29:54.635Z,18.30
2023-01-21T11:32:23.719Z,18.13
2023-01-21T11:34:53.751Z,18.30
2023-01-21T11:37:26.106Z,17.40
2023-01-21T11:39:59.474Z,19.07
2023-01-21T11:42:26.751Z,19.43
2023-01-21T11:45:01.318Z,19.17
2023-01-21T11:47:28.970Z,18.10
2023-01-21T11:50:03.624Z,18.53
2023-01-21T11:52:30.534Z,18.43
2023-01-21T11:54:57.360Z,18.57
2023-01-21T11:57:30.186Z,17.50
2023-01-21T12:00:07.475Z,18.83
2023-01-21T12:02:39.246Z,18.23
2023-01-21T12:05:26.659Z,17.83
2023-01-21T12:07:54.643Z,17.80
2023-01-21T12:10:27.367Z,16.40
2023-01-21T12:13:12.642Z,18.53
2023-01-21T12:16:04.217Z,16.77
2023-01-21T12:18:55.553Z,17.43
2023-01-21T12:21:43.458Z,19.13
2023-01-21T12:24:36.379Z,17.37
2023-01-21T12:27:40.796Z,17.97
2023-01-21T12:30:27.090Z,18.23
2023-01-21T12:33:13.883Z,18.40
2023-01-21T12:35:52.134Z,20.40
2023-01-21T12:38:34.505Z,18.60
2023-01-21T12:41:15.583Z,18.00
2023-01-21T12:44:02.114Z,18.87
2023-01-21T12:46:44.567Z,19.47
2023-01-21T12:49:20.879Z,17.50
2023-01-21T12:51:53.259Z,15.97
2023-01-21T12:54:38.166Z,19.50
2023-01-21T12:57:19.582Z,17.67
2023-01-21T13:00:15.717Z,18.83
2023-01-21T13:02:49.438Z,19.50
2023-01-21T13:05:43.882Z,18.00
2023-01-21T13:08:43.363Z,19.00
2023-01-21T13:11:27.722Z,18.63
2023-01-21T13:14:26.602Z,16.93
2023-01-21T13:16:59.224Z,18.83
2023-01-21T13:19:26.050Z,19.67
2023-01-21T13:22:04.083Z,18.23
2023-01-21T13:25:01.902Z,19.67
2023-01-21T13:27:39.067Z,19.83
2023-01-21T13:30:33.176Z,18.23
2023-01-21T13:33:24.875Z,20.40
2023-01-21T13:36:02.859Z,19.60
2023-01-21T13:38:35.372Z,17.67
2023-01-21T13:41:14.172Z,19.37
2023-01-21T13:44:01.735Z,17.77
2023-01-21T13:46:40.895Z,17.90
2023-01-21T13:49:13.503Z,18.27
2023-01-21T13:52:20.170Z,18.60
2023-01-21T13:54:46.930Z,16.90
2023-01-21T13:57:24.420Z,18.90
2023-01-21T14:00:19.679Z,18.07
2023-01-21T14:02:57.742Z,18.37
2023-01-21T14:05:49.123Z,17.63
2023-01-21T14:08:41.092Z,17.40
2023-01-21T14:11:26.328Z,15.50
2023-01-21T14:14:16.072Z,17.37
2023-01-21T14:16:45.808Z,16.80
2023-01-21T14:19:46.437Z,16.57
2023-01-21T14:22:34.826Z,18.30
2023-01-21T14:25:20.063Z,18.23
2023-01-21T14:28:13.423Z,17.87
2023-01-21T14:30:49.791Z,18.73
2023-01-21T14:33:23.953Z,19.07
2023-01-21T14:36:06.322Z,18.47
2023-01-21T14:38:43.448Z,17.60
2023-01-21T14:41:11.891Z,17.57
2023-01-21T14:43:40.352Z,17.00
2023-01-21T14:46:30.888Z,16.17
2023-01-21T14:49:06.411Z,17.80
2023-01-21T14:51:36.307Z,17.57
2023-01-21T14:54:11.253Z,17.27
2023-01-21T14:56:38.477Z,16.70
2023-01-21T14:59:06.859Z,12.03
2023-01-21T15:01:48.401Z,14.90
2023-01-21T15:04:27.657Z,16.93
2023-01-21T15:07:00.551Z,16.13
2023-01-21T15:09:32.563Z,15.47
2023-01-21T15:12:03.501Z,16.10
2023-01-21T15:14:39.464Z,16.20
2023-01-21T15:17:46.727Z,17.67
2023-01-21T15:20:51.206Z,16.63
2023-01-21T15:23:29.966Z,17.63
2023-01-21T15:26:19.568Z,16.43
2023-01-21T15:28:53.583Z,16.00
2023-01-21T15:31:20.436Z,16.17
2023-01-21T15:34:09.989Z,15.67
2023-01-21T15:36:57.112Z,15.83
2023-01-21T15:39:33.345Z,14.93
2023-01-21T15:42:32.797Z,16.60
2023-01-21T15:45:21.599Z,15.67
2023-01-21T15:47:48.340Z,14.87
2023-01-21T15:50:35.117Z,15.07
2023-01-21T15:53:15.429Z,14.03
2023-01-21T15:56:06.445Z,14.70
2023-01-21T15:59:10.782Z,14.30
2023-01-21T16:01:39.539Z,14.50
2023-01-21T16:04:18.932Z,15.40
2023-01-21T16:07:04.016Z,14.77
2023-01-21T16:09:54.392Z,14.53
2023-01-21T16:12:41.821Z,15.13
2023-01-21T16:15:11.686Z,13.97
2023-01-21T16:18:07.831Z,12.00
2023-01-21T16:20:35.051Z,13.83
2023-01-21T16:23:06.177Z,13.20
2023-01-21T16:25:46.258Z,13.90
2023-01-21T16:28:13.020Z,12.60
2023-01-21T16:30:39.782Z,13.60
2023-01-21T16:33:16.451Z,12.60
2023-01-21T16:35:47.994Z,12.43
2023-01-21T16:38:24.187Z,13.07
2023-01-21T16:41:12.495Z,13.13
2023-01-21T16:44:12.284Z,12.10
2023-01-21T16:46:41.173Z,12.70
2023-01-21T16:49:17.864Z,12.60
2023-01-21T16:51:52.282Z,13.03
2023-01-21T16:54:25.997Z,12.20
2023-01-21T16:57:01.619Z,12.57
2023-01-21T16:59:44.570Z,12.80
2023-01-21T17:02:28.384Z,13.10
2023-01-21T17:04:57.706Z,12.80
2023-01-21T17:07:41.867Z,13.03
2023-01-21T17:10:39.797Z,12.53
2023-01-21T17:13:13.869Z,13.37
2023-01-21T17:15:43.131Z,13.60
2023-01-21T17:18:21.909Z,13.37
2023-01-21T17:20:53.799Z,12.80
2023-01-21T17:23:31.319Z,13.10
2023-01-21T17:26:27.208Z,11.93
2023-01-21T17:28:57.978Z,12.00
2023-01-21T17:31:30.317Z,12.80
2023-01-21T17:34:17.234Z,12.23
2023-01-21T17:36:46.391Z,11.80
2023-01-21T17:39:13.707Z,12.30
2023-01-21T17:41:42.978Z,11.90
2023-01-21T17:44:24.063Z,10.83
2023-01-21T17:46:54.390Z,11.80
2023-01-21T17:49:25.315Z,12.57
2023-01-21T17:51:54.325Z,13.30
2023-01-21T17:54:24.494Z,13.20
2023-01-21T17:56:56.576Z,13.13
2023-01-21T17:59:35.255Z,13.07
2023-01-21T18:02:04.377Z,14.03
2023-01-21T18:04:31.311Z,13.47
2023-01-21T18:06:58.528Z,12.57
2023-01-21T18:09:25.795Z,13.27
2023-01-21T18:11:54.420Z,14.63
2023-01-21T18:14:23.719Z,12.87
2023-01-21T18:16:53.034Z,14.00
2023-01-21T18:19:30.439Z,12.73
2023-01-21T18:21:58.166Z,13.73
2023-01-21T18:24:25.609Z,13.03
2023-01-21T18:26:52.990Z,12.77
2023-01-21T18:29:21.825Z,13.63
2023-01-21T18:31:51.233Z,14.43
2023-01-21T18:34:18.204Z,13.87
2023-01-21T18:36:45.312Z,14.40
2023-01-21T18:39:16.436Z,13.87
2023-01-21T18:41:43.508Z,14.70
2023-01-21T18:44:10.469Z,14.50
2023-01-21T18:46:41.982Z,15.23
2023-01-21T18:49:19.760Z,14.23
2023-01-21T18:51:47.277Z,15.77
2023-01-21T18:54:15.883Z,14.73
2023-01-21T18:56:43.968Z,16.37
2023-01-21T18:59:18.368Z,16.83
2023-01-21T19:01:45.632Z,17.73
2023-01-21T19:04:15.867Z,19.20
2023-01-21T19:06:43.281Z,16.37
2023-01-21T19:09:26.064Z,16.00
2023-01-21T19:11:52.968Z,17.10
2023-01-21T19:14:19.812Z,15.43
2023-01-21T19:16:46.931Z,17.67
2023-01-21T19:19:21.197Z,18.07
2023-01-21T19:21:48.276Z,16.10
2023-01-21T19:24:15.315Z,17.03
2023-01-21T19:26:42.392Z,17.33
2023-01-21T19:29:15.245Z,17.70
2023-01-21T19:31:42.171Z,18.57
2023-01-21T19:34:10.635Z,19.87
2023-01-21T19:36:39.063Z,18.57
2023-01-21T19:39:16.013Z,19.03
2023-01-21T19:41:42.826Z,17.77
2023-01-21T19:44:09.562Z,19.13
2023-01-21T19:46:36.404Z,16.53
2023-01-21T19:49:12.561Z,17.80
2023-01-21T19:51:39.485Z,18.57
2023-01-21T19:54:06.383Z,18.97
2023-01-21T19:56:33.131Z,20.50
2023-01-21T19:59:00.345Z,18.50
2023-01-21T20:01:27.131Z,17.60
2023-01-21T20:04:00.176Z,19.13
2023-01-21T20:06:30.374Z,19.27
2023-01-21T20:08:59.642Z,18.50
2023-01-21T20:11:26.459Z,17.97
2023-01-21T20:13:53.225Z,19.23
2023-01-21T20:16:26.988Z,19.93
2023-01-21T20:18:55.361Z,18.23
2023-01-21T20:21:22.304Z,19.40
2023-01-21T20:23:49.180Z,18.40
2023-01-21T20:26:24.476Z,21.30
2023-01-21T20:28:54.512Z,19.50
2023-01-21T20:31:21.719Z,20.33
2023-01-21T20:33:48.702Z,19.70
2023-01-21T20:36:26.244Z,20.50
2023-01-21T20:38:54.222Z,20.60
2023-01-21T20:41:21.170Z,20.10
2023-01-21T20:43:49.157Z,19.90
2023-01-21T20:46:19.824Z,18.60
2023-01-21T20:48:47.035Z,19.00
2023-01-21T20:51:14.096Z,18.40
2023-01-21T20:53:43.282Z,21.10
2023-01-21T20:56:42.656Z,20.93
2023-01-21T20:59:09.992Z,18.40
2023-01-21T21:01:39.454Z,19.47
2023-01-21T21:04:06.582Z,19.67
2023-01-21T21:06:33.594Z,18.30
2023-01-21T21:09:00.420Z,19.80
2023-01-21T21:11:27.380Z,19.63
2023-01-21T21:13:54.154Z,20.10
2023-01-21T21:16:22.564Z,19.40
2023-01-21T21:18:50.092Z,18.80
2023-01-21T21:21:17.877Z,19.80
2023-01-21T21:23:46.588Z,18.70
2023-01-21T21:26:33.201Z,18.67
2023-01-21T21:29:00.228Z,19.43
2023-01-21T21:31:31.880Z,19.63
2023-01-21T21:33:58.783Z,19.27
2023-01-21T21:36:25.598Z,19.80
2023-01-21T21:38:55.731Z,19.33
2023-01-21T21:41:43.367Z,20.10
2023-01-21T21:44:11.718Z,20.77
2023-01-21T21:46:57.623Z,19.80
2023-01-21T21:49:24.811Z,20.33
2023-01-21T21:51:51.647Z,21.13
2023-01-21T21:54:18.700Z,21.90
2023-01-21T21:56:46.466Z,21.17
2023-01-21T21:59:14.150Z,21.40
2023-01-21T22:01:42.979Z,18.87
2023-01-21T22:04:10.196Z,20.10
2023-01-21T22:06:37.117Z,19.60
2023-01-21T22:09:04.370Z,20.17
2023-01-21T22:11:31.380Z,20.03
2023-01-21T22:13:58.551Z,20.03
2023-01-21T22:16:27.821Z,21.73
2023-01-21T22:18:55.243Z,18.60
2023-01-21T22:21:27.328Z,20.80
2023-01-21T22:23:55.034Z,20.30
2023-01-21T22:26:23.934Z,19.33
2023-01-21T22:28:51.370Z,18.23
2023-01-21T22:31:27.072Z,21.70
2023-01-21T22:33:54.636Z,20.30
2023-01-21T22:36:23.632Z,18.80
2023-01-21T22:38:50.781Z,18.20
2023-01-21T22:41:20.523Z,20.30
2023-01-21T22:43:48.937Z,22.03
2023-01-21T22:46:19.093Z,22.80
2023-01-21T22:48:46.783Z,21.50
2023-01-21T22:51:15.801Z,20.00
2023-01-21T22:53:45.879Z,20.17
2023-01-21T22:56:14.812Z,19.07
2023-01-21T22:58:41.905Z,15.37
2023-01-21T23:01:19.594Z,19.63
2023-01-21T23:03:46.425Z,19.07
2023-01-21T23:06:13.273Z,20.33
2023-01-21T23:08:40.029Z,20.60
2023-01-21T23:11:08.314Z,19.27
2023-01-21T23:13:35.349Z,19.97
2023-01-21T23:16:02.377Z,18.50
2023-01-21T23:18:29.883Z,19.00
2023-01-21T23:20:57.024Z,18.03
2023-01-21T23:23:24.823Z,17.90
2023-01-21T23:25:52.027Z,19.60
2023-01-21T23:28:18.885Z,18.63
2023-01-21T23:30:46.052Z,18.13
2023-01-21T23:33:13.508Z,16.73
2023-01-21T23:35:40.258Z,18.97
2023-01-21T23:38:07.037Z,19.63
2023-01-21T23:40:33.806Z,19.13
2023-01-21T23:43:00.633Z,19.87
2023-01-21T23:45:27.483Z,19.57
2023-01-21T23:47:55.011Z,18.67
2023-01-21T23:50:21.892Z,19.40
2023-01-21T23:52:48.604Z,18.40
2023-01-21T23:55:15.405Z,19.00
2023-01-21T23:57:42.182Z,18.80
